sensor_id;sensor_type;location;lat;lon;timestamp;P1;durP1;ratioP1;P2;durP2;ratioP2
7495;SDS011;3789;47.064;15.482;2023-01-31T00:01:35;1.40;;;1.30;;
7495;SDS011;3789;47.064;15.482;2023-01-31T00:04:05;1.70;;;1.60;;
7495;SDS011;3789;47.064;15.482;2023-01-31T00:06:35;1.50;;;1.40;;
7495;SDS011;3789;47.064;15.482;2023-01-31T00:09:05;1.73;;;1.63;;
7495;SDS011;3789;47.064;15.482;2023-01-31T00:11:33;1.40;;;1.30;;
7495;SDS011;3789;47.064;15.482;2023-01-31T00:14:02;2.10;;;1.50;;
7495;SDS011;3789;47.064;15.482;2023-01-31T00:16:31;1.50;;;1.40;;
7495;SDS011;3789;47.064;15.482;2023-01-31T00:18:59;1.70;;;1.60;;
7495;SDS011;3789;47.064;15.482;2023-01-31T00:21:27;2.30;;;1.60;;
7495;SDS011;3789;47.064;15.482;2023-01-31T00:23:56;1.40;;;1.30;;
7495;SDS011;3789;47.064;15.482;2023-01-31T00:26:25;1.70;;;1.60;;
7495;SDS011;3789;47.064;15.482;2023-01-31T00:28:58;1.90;;;1.80;;
7495;SDS011;3789;47.064;15.482;2023-01-31T00:31:27;1.60;;;1.50;;
7495;SDS011;3789;47.064;15.482;2023-01-31T00:33:56;1.60;;;1.50;;
7495;SDS011;3789;47.064;15.482;2023-01-31T00:36:28;1.60;;;1.50;;
7495;SDS011;3789;47.064;15.482;2023-01-31T00:38:57;1.33;;;1.23;;
7495;SDS011;3789;47.064;15.482;2023-01-31T00:41:26;1.60;;;1.50;;
7495;SDS011;3789;47.064;15.482;2023-01-31T00:43:55;1.50;;;1.40;;
7495;SDS011;3789;47.064;15.482;2023-01-31T00:46:23;1.60;;;1.50;;
7495;SDS011;3789;47.064;15.482;2023-01-31T00:48:50;1.57;;;1.47;;
7495;SDS011;3789;47.064;15.482;2023-01-31T00:51:18;1.20;;;1.10;;
7495;SDS011;3789;47.064;15.482;2023-01-31T00:53:46;1.67;;;1.30;;
7495;SDS011;3789;47.064;15.482;2023-01-31T00:56:19;1.47;;;1.37;;
7495;SDS011;3789;47.064;15.482;2023-01-31T00:58:51;1.93;;;1.30;;
7495;SDS011;3789;47.064;15.482;2023-01-31T01:01:23;1.30;;;1.20;;
7495;SDS011;3789;47.064;15.482;2023-01-31T01:03:52;2.50;;;1.40;;
7495;SDS011;3789;47.064;15.482;2023-01-31T01:06:21;1.63;;;1.40;;
7495;SDS011;3789;47.064;15.482;2023-01-31T01:08:48;1.20;;;1.10;;
7495;SDS011;3789;47.064;15.482;2023-01-31T01:11:19;1.13;;;1.13;;
7495;SDS011;3789;47.064;15.482;2023-01-31T01:13:51;2.40;;;1.30;;
7495;SDS011;3789;47.064;15.482;2023-01-31T01:16:21;1.30;;;1.20;;
7495;SDS011;3789;47.064;15.482;2023-01-31T01:18:53;1.10;;;1.10;;
7495;SDS011;3789;47.064;15.482;2023-01-31T01:21:21;1.10;;;1.10;;
7495;SDS011;3789;47.064;15.482;2023-01-31T01:23:50;2.10;;;1.07;;
7495;SDS011;3789;47.064;15.482;2023-01-31T01:26:20;2.70;;;1.20;;
7495;SDS011;3789;47.064;15.482;2023-01-31T01:28:50;1.57;;;1.10;;
7495;SDS011;3789;47.064;15.482;2023-01-31T01:31:18;1.10;;;1.10;;
7495;SDS011;3789;47.064;15.482;2023-01-31T01:33:47;1.27;;;1.17;;
7495;SDS011;3789;47.064;15.482;2023-01-31T01:36:15;1.00;;;1.00;;
7495;SDS011;3789;47.064;15.482;2023-01-31T01:38:48;1.03;;;1.03;;
7495;SDS011;3789;47.064;15.482;2023-01-31T01:41:15;1.77;;;1.20;;
7495;SDS011;3789;47.064;15.482;2023-01-31T01:43:44;1.30;;;1.20;;
7495;SDS011;3789;47.064;15.482;2023-01-31T01:46:33;1.10;;;1.10;;
7495;SDS011;3789;47.064;15.482;2023-01-31T01:51:38;1.13;;;1.10;;
7495;SDS011;3789;47.064;15.482;2023-01-31T01:54:08;1.10;;;1.10;;
7495;SDS011;3789;47.064;15.482;2023-01-31T01:56:42;1.20;;;1.10;;
7495;SDS011;3789;47.064;15.482;2023-01-31T01:59:15;1.20;;;1.10;;
7495;SDS011;3789;47.064;15.482;2023-01-31T02:02:06;1.00;;;1.00;;
7495;SDS011;3789;47.064;15.482;2023-01-31T02:04:36;1.30;;;1.20;;
7495;SDS011;3789;47.064;15.482;2023-01-31T02:07:04;1.30;;;1.20;;
7495;SDS011;3789;47.064;15.482;2023-01-31T02:09:48;1.40;;;1.17;;
7495;SDS011;3789;47.064;15.482;2023-01-31T02:12:22;1.20;;;1.10;;
7495;SDS011;3789;47.064;15.482;2023-01-31T02:14:50;1.20;;;1.10;;
7495;SDS011;3789;47.064;15.482;2023-01-31T02:17:19;1.30;;;1.20;;
7495;SDS011;3789;47.064;15.482;2023-01-31T02:19:59;1.20;;;1.10;;
7495;SDS011;3789;47.064;15.482;2023-01-31T02:22:38;1.10;;;1.10;;
7495;SDS011;3789;47.064;15.482;2023-01-31T02:28:21;1.10;;;1.00;;
7495;SDS011;3789;47.064;15.482;2023-01-31T02:31:15;1.67;;;1.30;;
7495;SDS011;3789;47.064;15.482;2023-01-31T02:34:15;1.20;;;1.10;;
7495;SDS011;3789;47.064;15.482;2023-01-31T02:43:04;1.10;;;1.10;;
7495;SDS011;3789;47.064;15.482;2023-01-31T02:51:17;1.70;;;1.10;;
7495;SDS011;3789;47.064;15.482;2023-01-31T02:53:52;1.20;;;1.10;;
7495;SDS011;3789;47.064;15.482;2023-01-31T02:56:34;1.40;;;1.17;;
7495;SDS011;3789;47.064;15.482;2023-01-31T02:59:07;1.50;;;1.13;;
7495;SDS011;3789;47.064;15.482;2023-01-31T03:01:41;1.23;;;1.13;;
7495;SDS011;3789;47.064;15.482;2023-01-31T03:07:55;1.40;;;1.30;;
7495;SDS011;3789;47.064;15.482;2023-01-31T03:19:13;1.20;;;1.10;;
7495;SDS011;3789;47.064;15.482;2023-01-31T03:21:51;1.30;;;1.20;;
7495;SDS011;3789;47.064;15.482;2023-01-31T03:24:23;1.87;;;1.40;;
7495;SDS011;3789;47.064;15.482;2023-01-31T03:26:55;2.20;;;1.40;;
7495;SDS011;3789;47.064;15.482;2023-01-31T03:29:27;2.13;;;1.90;;
7495;SDS011;3789;47.064;15.482;2023-01-31T03:32:02;2.50;;;2.30;;
7495;SDS011;3789;47.064;15.482;2023-01-31T03:34:35;2.53;;;2.00;;
7495;SDS011;3789;47.064;15.482;2023-01-31T03:37:15;1.53;;;1.43;;
7495;SDS011;3789;47.064;15.482;2023-01-31T03:39:55;1.73;;;1.40;;
7495;SDS011;3789;47.064;15.482;2023-01-31T03:45:08;1.73;;;1.30;;
7495;SDS011;3789;47.064;15.482;2023-01-31T03:47:53;1.30;;;1.20;;
7495;SDS011;3789;47.064;15.482;2023-01-31T03:50:28;1.20;;;1.10;;
7495;SDS011;3789;47.064;15.482;2023-01-31T03:53:09;1.27;;;1.17;;
7495;SDS011;3789;47.064;15.482;2023-01-31T03:58:10;1.20;;;1.10;;
7495;SDS011;3789;47.064;15.482;2023-01-31T04:00:42;1.50;;;1.40;;
7495;SDS011;3789;47.064;15.482;2023-01-31T04:03:12;2.40;;;1.20;;
7495;SDS011;3789;47.064;15.482;2023-01-31T04:05:46;2.20;;;1.10;;
7495;SDS011;3789;47.064;15.482;2023-01-31T04:08:15;1.30;;;1.20;;
7495;SDS011;3789;47.064;15.482;2023-01-31T04:10:42;1.13;;;1.10;;
7495;SDS011;3789;47.064;15.482;2023-01-31T04:13:10;1.37;;;1.27;;
7495;SDS011;3789;47.064;15.482;2023-01-31T04:15:37;2.67;;;1.97;;
7495;SDS011;3789;47.064;15.482;2023-01-31T04:18:05;2.80;;;2.00;;
7495;SDS011;3789;47.064;15.482;2023-01-31T04:20:32;2.10;;;1.90;;
7495;SDS011;3789;47.064;15.482;2023-01-31T04:22:59;2.20;;;1.80;;
7495;SDS011;3789;47.064;15.482;2023-01-31T04:25:27;1.60;;;1.50;;
7495;SDS011;3789;47.064;15.482;2023-01-31T04:27:57;3.10;;;1.60;;
7495;SDS011;3789;47.064;15.482;2023-01-31T04:30:24;1.60;;;1.37;;
7495;SDS011;3789;47.064;15.482;2023-01-31T04:32:51;1.40;;;1.30;;
7495;SDS011;3789;47.064;15.482;2023-01-31T04:35:18;1.20;;;1.10;;
7495;SDS011;3789;47.064;15.482;2023-01-31T04:37:46;1.23;;;1.13;;
7495;SDS011;3789;47.064;15.482;2023-01-31T04:40:13;1.53;;;1.30;;
7495;SDS011;3789;47.064;15.482;2023-01-31T04:42:40;1.43;;;1.33;;
7495;SDS011;3789;47.064;15.482;2023-01-31T04:45:08;1.30;;;1.20;;
7495;SDS011;3789;47.064;15.482;2023-01-31T04:47:36;2.10;;;1.20;;
7495;SDS011;3789;47.064;15.482;2023-01-31T04:50:03;1.40;;;1.30;;
7495;SDS011;3789;47.064;15.482;2023-01-31T04:52:31;1.60;;;1.20;;
7495;SDS011;3789;47.064;15.482;2023-01-31T04:54:58;1.40;;;1.30;;
7495;SDS011;3789;47.064;15.482;2023-01-31T04:57:25;1.30;;;1.20;;
7495;SDS011;3789;47.064;15.482;2023-01-31T04:59:52;1.23;;;1.13;;
7495;SDS011;3789;47.064;15.482;2023-01-31T05:02:20;1.47;;;1.30;;
7495;SDS011;3789;47.064;15.482;2023-01-31T05:04:48;1.20;;;1.10;;
7495;SDS011;3789;47.064;15.482;2023-01-31T05:07:15;1.30;;;1.20;;
7495;SDS011;3789;47.064;15.482;2023-01-31T05:09:43;1.30;;;1.20;;
7495;SDS011;3789;47.064;15.482;2023-01-31T05:12:10;1.57;;;1.47;;
7495;SDS011;3789;47.064;15.482;2023-01-31T05:14:37;1.73;;;1.40;;
7495;SDS011;3789;47.064;15.482;2023-01-31T05:17:05;1.53;;;1.40;;
7495;SDS011;3789;47.064;15.482;2023-01-31T05:19:32;1.30;;;1.20;;
7495;SDS011;3789;47.064;15.482;2023-01-31T05:21:59;2.07;;;1.47;;
7495;SDS011;3789;47.064;15.482;2023-01-31T05:24:27;1.40;;;1.30;;
7495;SDS011;3789;47.064;15.482;2023-01-31T05:26:57;1.57;;;1.20;;
7495;SDS011;3789;47.064;15.482;2023-01-31T05:29:27;2.23;;;1.20;;
7495;SDS011;3789;47.064;15.482;2023-01-31T05:31:58;1.40;;;1.30;;
7495;SDS011;3789;47.064;15.482;2023-01-31T05:34:27;2.13;;;1.50;;
7495;SDS011;3789;47.064;15.482;2023-01-31T05:36:58;2.00;;;1.40;;
7495;SDS011;3789;47.064;15.482;2023-01-31T05:39:26;1.50;;;1.37;;
7495;SDS011;3789;47.064;15.482;2023-01-31T05:41:54;1.40;;;1.30;;
7495;SDS011;3789;47.064;15.482;2023-01-31T05:44:21;1.37;;;1.27;;
7495;SDS011;3789;47.064;15.482;2023-01-31T05:46:49;1.43;;;1.30;;
7495;SDS011;3789;47.064;15.482;2023-01-31T05:49:16;1.73;;;1.60;;
7495;SDS011;3789;47.064;15.482;2023-01-31T05:51:43;2.17;;;1.70;;
7495;SDS011;3789;47.064;15.482;2023-01-31T05:54:10;2.00;;;1.90;;
7495;SDS011;3789;47.064;15.482;2023-01-31T05:56:38;2.90;;;2.10;;
7495;SDS011;3789;47.064;15.482;2023-01-31T05:59:05;1.80;;;1.70;;
7495;SDS011;3789;47.064;15.482;2023-01-31T06:01:32;1.70;;;1.60;;
7495;SDS011;3789;47.064;15.482;2023-01-31T06:03:59;1.70;;;1.60;;
7495;SDS011;3789;47.064;15.482;2023-01-31T06:06:27;1.70;;;1.60;;
7495;SDS011;3789;47.064;15.482;2023-01-31T06:08:54;2.17;;;1.80;;
7495;SDS011;3789;47.064;15.482;2023-01-31T06:11:21;2.17;;;2.03;;
7495;SDS011;3789;47.064;15.482;2023-01-31T06:13:50;1.90;;;1.80;;
7495;SDS011;3789;47.064;15.482;2023-01-31T06:16:17;1.90;;;1.80;;
7495;SDS011;3789;47.064;15.482;2023-01-31T06:18:45;2.03;;;1.93;;
7495;SDS011;3789;47.064;15.482;2023-01-31T06:21:12;1.90;;;1.80;;
7495;SDS011;3789;47.064;15.482;2023-01-31T06:23:39;1.90;;;1.80;;
7495;SDS011;3789;47.064;15.482;2023-01-31T06:26:07;1.90;;;1.80;;
7495;SDS011;3789;47.064;15.482;2023-01-31T06:28:35;2.47;;;1.90;;
7495;SDS011;3789;47.064;15.482;2023-01-31T06:31:07;2.00;;;1.90;;
7495;SDS011;3789;47.064;15.482;2023-01-31T06:33:35;2.33;;;2.23;;
7495;SDS011;3789;47.064;15.482;2023-01-31T06:36:13;2.00;;;1.90;;
7495;SDS011;3789;47.064;15.482;2023-01-31T06:38:47;2.00;;;1.90;;
7495;SDS011;3789;47.064;15.482;2023-01-31T06:41:16;2.00;;;1.90;;
7495;SDS011;3789;47.064;15.482;2023-01-31T06:43:44;2.40;;;2.20;;
7495;SDS011;3789;47.064;15.482;2023-01-31T06:46:11;2.17;;;2.00;;
7495;SDS011;3789;47.064;15.482;2023-01-31T06:48:38;2.00;;;1.90;;
7495;SDS011;3789;47.064;15.482;2023-01-31T06:51:05;1.90;;;1.80;;
7495;SDS011;3789;47.064;15.482;2023-01-31T06:53:32;2.10;;;2.00;;
7495;SDS011;3789;47.064;15.482;2023-01-31T06:56:00;2.83;;;2.07;;
7495;SDS011;3789;47.064;15.482;2023-01-31T06:58:27;2.10;;;2.00;;
7495;SDS011;3789;47.064;15.482;2023-01-31T07:00:54;2.10;;;2.00;;
7495;SDS011;3789;47.064;15.482;2023-01-31T07:03:22;2.70;;;2.50;;
7495;SDS011;3789;47.064;15.482;2023-01-31T07:05:49;1.80;;;1.70;;
7495;SDS011;3789;47.064;15.482;2023-01-31T07:08:16;4.43;;;2.60;;
7495;SDS011;3789;47.064;15.482;2023-01-31T07:10:43;3.00;;;2.30;;
7495;SDS011;3789;47.064;15.482;2023-01-31T07:13:13;4.47;;;2.63;;
7495;SDS011;3789;47.064;15.482;2023-01-31T07:15:41;3.10;;;2.70;;
7495;SDS011;3789;47.064;15.482;2023-01-31T07:18:08;2.50;;;2.30;;
7495;SDS011;3789;47.064;15.482;2023-01-31T07:20:35;1.90;;;1.80;;
7495;SDS011;3789;47.064;15.482;2023-01-31T07:23:03;4.80;;;3.13;;
7495;SDS011;3789;47.064;15.482;2023-01-31T07:25:30;3.23;;;2.67;;
7495;SDS011;3789;47.064;15.482;2023-01-31T07:28:01;2.90;;;2.60;;
7495;SDS011;3789;47.064;15.482;2023-01-31T07:30:29;2.77;;;2.20;;
7495;SDS011;3789;47.064;15.482;2023-01-31T07:32:57;2.60;;;2.40;;
7495;SDS011;3789;47.064;15.482;2023-01-31T07:35:25;3.03;;;2.20;;
7495;SDS011;3789;47.064;15.482;2023-01-31T07:37:55;3.83;;;1.97;;
7495;SDS011;3789;47.064;15.482;2023-01-31T07:40:22;2.00;;;1.80;;
7495;SDS011;3789;47.064;15.482;2023-01-31T07:42:49;1.80;;;1.70;;
7495;SDS011;3789;47.064;15.482;2023-01-31T07:45:17;2.27;;;1.50;;
7495;SDS011;3789;47.064;15.482;2023-01-31T07:47:49;1.53;;;1.43;;
7495;SDS011;3789;47.064;15.482;2023-01-31T07:50:17;1.60;;;1.50;;
7495;SDS011;3789;47.064;15.482;2023-01-31T07:52:45;1.93;;;1.70;;
7495;SDS011;3789;47.064;15.482;2023-01-31T07:55:14;2.00;;;1.60;;
7495;SDS011;3789;47.064;15.482;2023-01-31T07:57:42;1.70;;;1.57;;
7495;SDS011;3789;47.064;15.482;2023-01-31T08:00:09;3.60;;;1.43;;
7495;SDS011;3789;47.064;15.482;2023-01-31T08:02:56;2.30;;;1.70;;
7495;SDS011;3789;47.064;15.482;2023-01-31T08:05:44;2.80;;;1.37;;
7495;SDS011;3789;47.064;15.482;2023-01-31T08:08:13;2.40;;;1.47;;
7495;SDS011;3789;47.064;15.482;2023-01-31T08:10:40;1.60;;;1.40;;
7495;SDS011;3789;47.064;15.482;2023-01-31T08:13:07;2.10;;;1.60;;
7495;SDS011;3789;47.064;15.482;2023-01-31T08:15:37;2.60;;;1.43;;
7495;SDS011;3789;47.064;15.482;2023-01-31T08:18:04;2.50;;;1.40;;
7495;SDS011;3789;47.064;15.482;2023-01-31T08:20:32;1.93;;;1.30;;
7495;SDS011;3789;47.064;15.482;2023-01-31T08:22:59;1.83;;;1.70;;
7495;SDS011;3789;47.064;15.482;2023-01-31T08:25:27;2.00;;;1.50;;
7495;SDS011;3789;47.064;15.482;2023-01-31T08:27:56;1.67;;;1.30;;
7495;SDS011;3789;47.064;15.482;2023-01-31T08:30:23;2.07;;;1.40;;
7495;SDS011;3789;47.064;15.482;2023-01-31T08:32:50;2.70;;;1.37;;
7495;SDS011;3789;47.064;15.482;2023-01-31T08:35:17;4.73;;;2.30;;
7495;SDS011;3789;47.064;15.482;2023-01-31T08:37:45;4.07;;;2.60;;
7495;SDS011;3789;47.064;15.482;2023-01-31T08:40:12;2.57;;;2.10;;
7495;SDS011;3789;47.064;15.482;2023-01-31T08:42:40;3.20;;;2.33;;
7495;SDS011;3789;47.064;15.482;2023-01-31T08:45:07;3.33;;;2.57;;
7495;SDS011;3789;47.064;15.482;2023-01-31T08:47:35;2.87;;;2.30;;
7495;SDS011;3789;47.064;15.482;2023-01-31T08:50:04;4.17;;;2.10;;
7495;SDS011;3789;47.064;15.482;2023-01-31T08:52:51;4.53;;;1.90;;
7495;SDS011;3789;47.064;15.482;2023-01-31T08:55:22;2.40;;;1.80;;
7495;SDS011;3789;47.064;15.482;2023-01-31T08:57:50;2.80;;;1.73;;
7495;SDS011;3789;47.064;15.482;2023-01-31T09:00:25;1.63;;;1.53;;
7495;SDS011;3789;47.064;15.482;2023-01-31T09:02:53;3.70;;;2.10;;
7495;SDS011;3789;47.064;15.482;2023-01-31T09:05:21;3.13;;;1.80;;
7495;SDS011;3789;47.064;15.482;2023-01-31T09:07:50;1.93;;;1.50;;
7495;SDS011;3789;47.064;15.482;2023-01-31T09:10:17;1.90;;;1.70;;
7495;SDS011;3789;47.064;15.482;2023-01-31T09:12:46;4.30;;;1.70;;
7495;SDS011;3789;47.064;15.482;2023-01-31T09:15:13;3.27;;;1.87;;
7495;SDS011;3789;47.064;15.482;2023-01-31T09:17:40;3.00;;;1.80;;
7495;SDS011;3789;47.064;15.482;2023-01-31T09:20:09;4.77;;;1.93;;
7495;SDS011;3789;47.064;15.482;2023-01-31T09:22:36;2.07;;;1.60;;
7495;SDS011;3789;47.064;15.482;2023-01-31T09:25:04;1.73;;;1.37;;
7495;SDS011;3789;47.064;15.482;2023-01-31T09:27:32;1.57;;;1.30;;
7495;SDS011;3789;47.064;15.482;2023-01-31T09:29:59;1.67;;;1.37;;
7495;SDS011;3789;47.064;15.482;2023-01-31T09:32:26;1.50;;;1.40;;
7495;SDS011;3789;47.064;15.482;2023-01-31T09:34:56;3.20;;;1.87;;
7495;SDS011;3789;47.064;15.482;2023-01-31T09:37:23;3.23;;;1.90;;
7495;SDS011;3789;47.064;15.482;2023-01-31T09:39:50;2.23;;;1.80;;
7495;SDS011;3789;47.064;15.482;2023-01-31T09:44:58;2.80;;;1.33;;
7495;SDS011;3789;47.064;15.482;2023-01-31T09:47:40;1.70;;;1.30;;
7495;SDS011;3789;47.064;15.482;2023-01-31T09:52:44;1.50;;;1.40;;
7495;SDS011;3789;47.064;15.482;2023-01-31T09:55:19;1.73;;;1.17;;
7495;SDS011;3789;47.064;15.482;2023-01-31T10:00:50;1.57;;;1.30;;
7495;SDS011;3789;47.064;15.482;2023-01-31T10:03:40;6.63;;;1.30;;
7495;SDS011;3789;47.064;15.482;2023-01-31T10:09:28;2.60;;;1.40;;
7495;SDS011;3789;47.064;15.482;2023-01-31T10:11:58;2.00;;;1.07;;
7495;SDS011;3789;47.064;15.482;2023-01-31T10:14:40;1.93;;;1.40;;
7495;SDS011;3789;47.064;15.482;2023-01-31T10:17:21;2.73;;;1.30;;
7495;SDS011;3789;47.064;15.482;2023-01-31T10:22:37;3.83;;;2.47;;
7495;SDS011;3789;47.064;15.482;2023-01-31T10:25:33;3.23;;;1.57;;
7495;SDS011;3789;47.064;15.482;2023-01-31T10:28:11;2.30;;;1.80;;
7495;SDS011;3789;47.064;15.482;2023-01-31T10:30:45;2.80;;;1.80;;
7495;SDS011;3789;47.064;15.482;2023-01-31T10:36:30;2.30;;;1.37;;
7495;SDS011;3789;47.064;15.482;2023-01-31T10:39:32;1.13;;;1.07;;
7495;SDS011;3789;47.064;15.482;2023-01-31T10:45:16;1.70;;;1.53;;
7495;SDS011;3789;47.064;15.482;2023-01-31T10:47:52;3.63;;;2.30;;
7495;SDS011;3789;47.064;15.482;2023-01-31T10:50:32;3.43;;;1.90;;
7495;SDS011;3789;47.064;15.482;2023-01-31T10:56:36;2.77;;;1.50;;
7495;SDS011;3789;47.064;15.482;2023-01-31T10:59:11;1.30;;;1.20;;
7495;SDS011;3789;47.064;15.482;2023-01-31T11:01:44;1.87;;;1.57;;
7495;SDS011;3789;47.064;15.482;2023-01-31T11:04:30;5.97;;;1.30;;
7495;SDS011;3789;47.064;15.482;2023-01-31T11:07:00;2.00;;;1.40;;
7495;SDS011;3789;47.064;15.482;2023-01-31T11:09:32;2.47;;;1.30;;
7495;SDS011;3789;47.064;15.482;2023-01-31T11:12:03;1.93;;;1.20;;
7495;SDS011;3789;47.064;15.482;2023-01-31T11:14:32;2.53;;;1.27;;
7495;SDS011;3789;47.064;15.482;2023-01-31T11:17:16;1.43;;;1.27;;
7495;SDS011;3789;47.064;15.482;2023-01-31T11:19:47;2.33;;;1.50;;
7495;SDS011;3789;47.064;15.482;2023-01-31T11:22:27;2.37;;;1.20;;
7495;SDS011;3789;47.064;15.482;2023-01-31T11:25:00;1.40;;;1.30;;
7495;SDS011;3789;47.064;15.482;2023-01-31T11:30:05;1.97;;;1.40;;
7495;SDS011;3789;47.064;15.482;2023-01-31T11:32:44;2.03;;;1.50;;
7495;SDS011;3789;47.064;15.482;2023-01-31T11:37:51;1.20;;;1.07;;
7495;SDS011;3789;47.064;15.482;2023-01-31T11:42:54;1.17;;;1.00;;
7495;SDS011;3789;47.064;15.482;2023-01-31T11:45:24;1.93;;;1.10;;
7495;SDS011;3789;47.064;15.482;2023-01-31T11:47:58;3.23;;;1.60;;
7495;SDS011;3789;47.064;15.482;2023-01-31T11:50:38;1.50;;;1.20;;
7495;SDS011;3789;47.064;15.482;2023-01-31T11:55:45;3.00;;;1.53;;
7495;SDS011;3789;47.064;15.482;2023-01-31T12:03:39;1.30;;;1.13;;
7495;SDS011;3789;47.064;15.482;2023-01-31T12:08:56;2.97;;;1.40;;
7495;SDS011;3789;47.064;15.482;2023-01-31T12:11:29;1.50;;;1.30;;
7495;SDS011;3789;47.064;15.482;2023-01-31T12:16:28;3.20;;;1.50;;
7495;SDS011;3789;47.064;15.482;2023-01-31T12:24:50;2.27;;;1.60;;
7495;SDS011;3789;47.064;15.482;2023-01-31T12:30:38;1.50;;;1.33;;
7495;SDS011;3789;47.064;15.482;2023-01-31T12:33:17;1.80;;;1.37;;
7495;SDS011;3789;47.064;15.482;2023-01-31T12:37:00;2.57;;;1.53;;
7495;SDS011;3789;47.064;15.482;2023-01-31T12:48:06;2.50;;;1.53;;
7495;SDS011;3789;47.064;15.482;2023-01-31T12:51:03;2.83;;;1.63;;
7495;SDS011;3789;47.064;15.482;2023-01-31T13:02:24;2.33;;;1.63;;
7495;SDS011;3789;47.064;15.482;2023-01-31T13:08:14;1.97;;;1.07;;
7495;SDS011;3789;47.064;15.482;2023-01-31T13:10:59;1.20;;;1.10;;
7495;SDS011;3789;47.064;15.482;2023-01-31T13:16:20;2.73;;;1.23;;
7495;SDS011;3789;47.064;15.482;2023-01-31T13:18:53;2.00;;;1.40;;
7495;SDS011;3789;47.064;15.482;2023-01-31T13:21:24;1.70;;;1.40;;
7495;SDS011;3789;47.064;15.482;2023-01-31T13:24:04;3.60;;;1.40;;
7495;SDS011;3789;47.064;15.482;2023-01-31T13:26:45;2.30;;;1.57;;
7495;SDS011;3789;47.064;15.482;2023-01-31T13:29:22;2.30;;;1.17;;
7495;SDS011;3789;47.064;15.482;2023-01-31T13:31:59;1.80;;;1.10;;
7495;SDS011;3789;47.064;15.482;2023-01-31T13:34:33;2.80;;;1.40;;
7495;SDS011;3789;47.064;15.482;2023-01-31T13:37:18;1.90;;;1.10;;
7495;SDS011;3789;47.064;15.482;2023-01-31T13:42:39;4.70;;;1.70;;
7495;SDS011;3789;47.064;15.482;2023-01-31T13:45:06;3.53;;;1.30;;
7495;SDS011;3789;47.064;15.482;2023-01-31T13:47:43;1.77;;;1.30;;
7495;SDS011;3789;47.064;15.482;2023-01-31T13:53:19;2.53;;;1.30;;
7495;SDS011;3789;47.064;15.482;2023-01-31T13:55:52;2.30;;;1.37;;
7495;SDS011;3789;47.064;15.482;2023-01-31T13:58:24;2.13;;;1.33;;
7495;SDS011;3789;47.064;15.482;2023-01-31T14:01:05;3.67;;;1.20;;
7495;SDS011;3789;47.064;15.482;2023-01-31T14:17:12;1.90;;;1.47;;
7495;SDS011;3789;47.064;15.482;2023-01-31T14:20:01;3.57;;;1.47;;
7495;SDS011;3789;47.064;15.482;2023-01-31T14:22:31;1.73;;;1.20;;
7495;SDS011;3789;47.064;15.482;2023-01-31T14:30:34;1.63;;;1.30;;
7495;SDS011;3789;47.064;15.482;2023-01-31T14:35:47;4.40;;;1.57;;
7495;SDS011;3789;47.064;15.482;2023-01-31T14:55:31;3.50;;;1.60;;
7495;SDS011;3789;47.064;15.482;2023-01-31T14:58:52;3.47;;;1.63;;
7495;SDS011;3789;47.064;15.482;2023-01-31T15:01:20;3.53;;;1.87;;
7495;SDS011;3789;47.064;15.482;2023-01-31T15:03:56;3.13;;;1.63;;
7495;SDS011;3789;47.064;15.482;2023-01-31T15:06:26;1.90;;;1.37;;
7495;SDS011;3789;47.064;15.482;2023-01-31T15:11:42;1.63;;;1.37;;
7495;SDS011;3789;47.064;15.482;2023-01-31T15:14:24;3.17;;;1.97;;
7495;SDS011;3789;47.064;15.482;2023-01-31T15:20:15;1.50;;;1.30;;
7495;SDS011;3789;47.064;15.482;2023-01-31T15:22:48;3.13;;;1.93;;
7495;SDS011;3789;47.064;15.482;2023-01-31T15:25:32;2.87;;;1.37;;
7495;SDS011;3789;47.064;15.482;2023-01-31T15:28:05;2.97;;;1.50;;
7495;SDS011;3789;47.064;15.482;2023-01-31T15:30:35;1.70;;;1.60;;
7495;SDS011;3789;47.064;15.482;2023-01-31T15:38:48;2.53;;;1.70;;
7495;SDS011;3789;47.064;15.482;2023-01-31T15:41:34;2.27;;;1.70;;
7495;SDS011;3789;47.064;15.482;2023-01-31T15:44:24;2.33;;;1.50;;
7495;SDS011;3789;47.064;15.482;2023-01-31T15:46:55;4.87;;;1.70;;
7495;SDS011;3789;47.064;15.482;2023-01-31T15:54:35;2.60;;;1.97;;
7495;SDS011;3789;47.064;15.482;2023-01-31T15:57:03;3.03;;;1.60;;
7495;SDS011;3789;47.064;15.482;2023-01-31T15:59:35;1.97;;;1.53;;
7495;SDS011;3789;47.064;15.482;2023-01-31T16:02:03;2.97;;;2.10;;
7495;SDS011;3789;47.064;15.482;2023-01-31T16:04:31;4.47;;;2.50;;
7495;SDS011;3789;47.064;15.482;2023-01-31T16:06:58;3.90;;;2.00;;
7495;SDS011;3789;47.064;15.482;2023-01-31T16:09:28;3.00;;;1.70;;
7495;SDS011;3789;47.064;15.482;2023-01-31T16:11:57;3.27;;;1.73;;
7495;SDS011;3789;47.064;15.482;2023-01-31T16:14:26;3.23;;;1.70;;
7495;SDS011;3789;47.064;15.482;2023-01-31T16:16:54;2.40;;;1.90;;
7495;SDS011;3789;47.064;15.482;2023-01-31T16:19:27;3.37;;;1.70;;
7495;SDS011;3789;47.064;15.482;2023-01-31T16:21:59;3.13;;;1.70;;
7495;SDS011;3789;47.064;15.482;2023-01-31T16:24:26;3.57;;;2.20;;
7495;SDS011;3789;47.064;15.482;2023-01-31T16:26:56;2.93;;;2.37;;
7495;SDS011;3789;47.064;15.482;2023-01-31T16:29:46;3.97;;;2.63;;
7495;SDS011;3789;47.064;15.482;2023-01-31T16:32:35;4.50;;;3.00;;
7495;SDS011;3789;47.064;15.482;2023-01-31T16:35:06;4.00;;;1.90;;
7495;SDS011;3789;47.064;15.482;2023-01-31T16:37:45;5.90;;;2.23;;
7495;SDS011;3789;47.064;15.482;2023-01-31T16:43:06;3.97;;;2.30;;
7495;SDS011;3789;47.064;15.482;2023-01-31T16:45:53;4.17;;;2.70;;
7495;SDS011;3789;47.064;15.482;2023-01-31T16:48:26;4.10;;;2.43;;
7495;SDS011;3789;47.064;15.482;2023-01-31T16:56:33;2.40;;;1.63;;
7495;SDS011;3789;47.064;15.482;2023-01-31T16:59:00;4.10;;;1.80;;
7495;SDS011;3789;47.064;15.482;2023-01-31T17:01:28;2.40;;;1.77;;
7495;SDS011;3789;47.064;15.482;2023-01-31T17:04:03;4.27;;;1.93;;
7495;SDS011;3789;47.064;15.482;2023-01-31T17:06:44;2.63;;;1.93;;
7495;SDS011;3789;47.064;15.482;2023-01-31T17:09:16;2.23;;;1.90;;
7495;SDS011;3789;47.064;15.482;2023-01-31T17:11:46;3.93;;;2.60;;
7495;SDS011;3789;47.064;15.482;2023-01-31T17:14:14;5.43;;;2.77;;
7495;SDS011;3789;47.064;15.482;2023-01-31T17:16:41;8.80;;;4.03;;
7495;SDS011;3789;47.064;15.482;2023-01-31T17:19:09;9.73;;;4.33;;
7495;SDS011;3789;47.064;15.482;2023-01-31T17:21:38;7.77;;;3.80;;
7495;SDS011;3789;47.064;15.482;2023-01-31T17:24:10;7.73;;;4.10;;
7495;SDS011;3789;47.064;15.482;2023-01-31T17:26:47;5.67;;;3.93;;
7495;SDS011;3789;47.064;15.482;2023-01-31T17:29:18;7.73;;;3.80;;
7495;SDS011;3789;47.064;15.482;2023-01-31T17:31:45;5.20;;;3.40;;
7495;SDS011;3789;47.064;15.482;2023-01-31T17:34:13;4.17;;;3.20;;
7495;SDS011;3789;47.064;15.482;2023-01-31T17:36:42;5.47;;;3.50;;
7495;SDS011;3789;47.064;15.482;2023-01-31T17:39:10;4.60;;;4.17;;
7495;SDS011;3789;47.064;15.482;2023-01-31T17:41:38;13.23;;;5.50;;
7495;SDS011;3789;47.064;15.482;2023-01-31T17:44:07;10.27;;;6.07;;
7495;SDS011;3789;47.064;15.482;2023-01-31T17:46:38;5.87;;;4.53;;
7495;SDS011;3789;47.064;15.482;2023-01-31T17:49:05;5.33;;;3.07;;
7495;SDS011;3789;47.064;15.482;2023-01-31T17:51:32;6.23;;;3.23;;
7495;SDS011;3789;47.064;15.482;2023-01-31T17:54:00;4.33;;;3.10;;
7495;SDS011;3789;47.064;15.482;2023-01-31T17:56:27;5.67;;;3.03;;
7495;SDS011;3789;47.064;15.482;2023-01-31T17:58:54;4.77;;;3.10;;
7495;SDS011;3789;47.064;15.482;2023-01-31T18:01:21;5.93;;;4.50;;
7495;SDS011;3789;47.064;15.482;2023-01-31T18:03:48;6.33;;;4.60;;
7495;SDS011;3789;47.064;15.482;2023-01-31T18:06:16;5.20;;;3.90;;
7495;SDS011;3789;47.064;15.482;2023-01-31T18:08:44;6.13;;;4.60;;
7495;SDS011;3789;47.064;15.482;2023-01-31T18:11:12;8.70;;;4.57;;
7495;SDS011;3789;47.064;15.482;2023-01-31T18:13:41;11.47;;;6.17;;
7495;SDS011;3789;47.064;15.482;2023-01-31T18:16:10;6.83;;;5.33;;
7495;SDS011;3789;47.064;15.482;2023-01-31T18:18:43;6.83;;;4.40;;
7495;SDS011;3789;47.064;15.482;2023-01-31T18:21:11;4.87;;;4.17;;
7495;SDS011;3789;47.064;15.482;2023-01-31T18:23:40;6.17;;;4.00;;
7495;SDS011;3789;47.064;15.482;2023-01-31T18:26:09;10.67;;;3.93;;
7495;SDS011;3789;47.064;15.482;2023-01-31T18:28:36;6.33;;;4.10;;
7495;SDS011;3789;47.064;15.482;2023-01-31T18:31:05;4.23;;;3.83;;